sensor_id;sensor_type;location;lat;lon;timestamp;temperature;humidity
21928;DHT22;11128;51.096;17.190;2023-08-01T00:00:45;20.30;99.90
21928;DHT22;11128;51.096;17.190;2023-08-01T00:05:46;20.30;99.90
21928;DHT22;11128;51.096;17.190;2023-08-01T00:10:48;20.30;99.90
21928;DHT22;11128;51.096;17.190;2023-08-01T00:15:49;20.20;99.90
21928;DHT22;11128;51.096;17.190;2023-08-01T00:20:52;20.20;99.90
21928;DHT22;11128;51.096;17.190;2023-08-01T00:25:55;20.20;99.90
21928;DHT22;11128;51.096;17.190;2023-08-01T00:31:06;20.20;99.90
21928;DHT22;11128;51.096;17.190;2023-08-01T00:36:08;20.20;99.90
21928;DHT22;11128;51.096;17.190;2023-08-01T00:41:10;20.20;99.90
21928;DHT22;11128;51.096;17.190;2023-08-01T00:46:11;20.20;99.90
21928;DHT22;11128;51.096;17.190;2023-08-01T00:51:13;20.20;99.90
21928;DHT22;11128;51.096;17.190;2023-08-01T00:56:14;20.20;99.90
21928;DHT22;11128;51.096;17.190;2023-08-01T01:01:16;20.10;99.90
21928;DHT22;11128;51.096;17.190;2023-08-01T01:11:23;20.10;99.90
21928;DHT22;11128;51.096;17.190;2023-08-01T01:16:24;19.90;99.90
21928;DHT22;11128;51.096;17.190;2023-08-01T01:21:26;19.90;99.90
21928;DHT22;11128;51.096;17.190;2023-08-01T01:26:27;19.90;99.90
21928;DHT22;11128;51.096;17.190;2023-08-01T01:31:29;19.80;99.90
21928;DHT22;11128;51.096;17.190;2023-08-01T01:36:31;19.60;99.90
21928;DHT22;11128;51.096;17.190;2023-08-01T01:41:32;19.60;99.90
21928;DHT22;11128;51.096;17.190;2023-08-01T01:46:33;19.60;99.90
21928;DHT22;11128;51.096;17.190;2023-08-01T01:51:35;19.60;99.90
21928;DHT22;11128;51.096;17.190;2023-08-01T01:56:36;19.60;99.90
21928;DHT22;11128;51.096;17.190;2023-08-01T02:01:37;19.70;99.90
21928;DHT22;11128;51.096;17.190;2023-08-01T02:06:39;19.80;99.90
21928;DHT22;11128;51.096;17.190;2023-08-01T02:11:40;19.80;99.90
21928;DHT22;11128;51.096;17.190;2023-08-01T02:16:41;19.70;99.90
21928;DHT22;11128;51.096;17.190;2023-08-01T02:21:42;19.70;99.90
21928;DHT22;11128;51.096;17.190;2023-08-01T02:26:44;19.60;99.90
21928;DHT22;11128;51.096;17.190;2023-08-01T02:31:45;19.60;99.90
21928;DHT22;11128;51.096;17.190;2023-08-01T02:36:46;19.60;99.90
21928;DHT22;11128;51.096;17.190;2023-08-01T02:41:47;19.60;99.90
21928;DHT22;11128;51.096;17.190;2023-08-01T02:46:49;19.60;99.90
21928;DHT22;11128;51.096;17.190;2023-08-01T02:51:50;19.70;99.90
21928;DHT22;11128;51.096;17.190;2023-08-01T02:56:51;19.70;99.90
21928;DHT22;11128;51.096;17.190;2023-08-01T03:01:52;19.70;99.90
21928;DHT22;11128;51.096;17.190;2023-08-01T03:06:54;19.70;99.90
21928;DHT22;11128;51.096;17.190;2023-08-01T03:11:55;19.70;99.90
21928;DHT22;11128;51.096;17.190;2023-08-01T03:16:56;19.70;99.90
21928;DHT22;11128;51.096;17.190;2023-08-01T03:21:58;19.70;99.90
21928;DHT22;11128;51.096;17.190;2023-08-01T03:26:59;19.60;99.90
21928;DHT22;11128;51.096;17.190;2023-08-01T03:32:00;19.60;99.90
21928;DHT22;11128;51.096;17.190;2023-08-01T03:37:02;19.50;99.90
21928;DHT22;11128;51.096;17.190;2023-08-01T03:42:05;19.40;99.90
21928;DHT22;11128;51.096;17.190;2023-08-01T03:47:06;19.30;99.90
21928;DHT22;11128;51.096;17.190;2023-08-01T03:52:07;19.20;99.90
21928;DHT22;11128;51.096;17.190;2023-08-01T03:57:09;19.10;99.90
21928;DHT22;11128;51.096;17.190;2023-08-01T04:02:11;19.10;99.90
21928;DHT22;11128;51.096;17.190;2023-08-01T04:07:12;19.10;1.00
21928;DHT22;11128;51.096;17.190;2023-08-01T04:12:14;19.10;1.00
21928;DHT22;11128;51.096;17.190;2023-08-01T04:17:15;19.10;1.00
21928;DHT22;11128;51.096;17.190;2023-08-01T04:22:17;19.10;1.00
21928;DHT22;11128;51.096;17.190;2023-08-01T04:27:18;19.10;1.00
21928;DHT22;11128;51.096;17.190;2023-08-01T04:32:19;19.10;1.00
21928;DHT22;11128;51.096;17.190;2023-08-01T04:37:21;19.00;1.00
21928;DHT22;11128;51.096;17.190;2023-08-01T04:42:24;19.00;1.00
21928;DHT22;11128;51.096;17.190;2023-08-01T04:47:25;19.00;1.00
21928;DHT22;11128;51.096;17.190;2023-08-01T04:52:26;18.90;1.00
21928;DHT22;11128;51.096;17.190;2023-08-01T04:57:28;18.80;99.90
21928;DHT22;11128;51.096;17.190;2023-08-01T05:02:29;18.70;99.90
21928;DHT22;11128;51.096;17.190;2023-08-01T05:07:31;18.70;99.90
21928;DHT22;11128;51.096;17.190;2023-08-01T05:12:32;18.70;1.00
21928;DHT22;11128;51.096;17.190;2023-08-01T05:17:33;18.70;1.00
21928;DHT22;11128;51.096;17.190;2023-08-01T05:22:35;18.70;1.00
21928;DHT22;11128;51.096;17.190;2023-08-01T05:27:36;18.70;1.00
21928;DHT22;11128;51.096;17.190;2023-08-01T05:32:37;18.70;1.00
21928;DHT22;11128;51.096;17.190;2023-08-01T05:37:44;18.70;1.00
21928;DHT22;11128;51.096;17.190;2023-08-01T05:42:45;18.70;22.20
21928;DHT22;11128;51.096;17.190;2023-08-01T05:47:46;18.70;99.90
21928;DHT22;11128;51.096;17.190;2023-08-01T05:52:48;18.60;99.90
21928;DHT22;11128;51.096;17.190;2023-08-01T05:57:49;18.60;1.00
21928;DHT22;11128;51.096;17.190;2023-08-01T06:02:53;18.60;1.00
21928;DHT22;11128;51.096;17.190;2023-08-01T06:07:55;18.50;99.90
21928;DHT22;11128;51.096;17.190;2023-08-01T06:12:56;18.50;99.90
21928;DHT22;11128;51.096;17.190;2023-08-01T06:17:57;18.50;1.00
21928;DHT22;11128;51.096;17.190;2023-08-01T06:22:59;18.40;1.00
21928;DHT22;11128;51.096;17.190;2023-08-01T06:28:01;18.40;99.90
21928;DHT22;11128;51.096;17.190;2023-08-01T06:33:02;18.40;99.90
21928;DHT22;11128;51.096;17.190;2023-08-01T06:38:04;18.40;1.00
21928;DHT22;11128;51.096;17.190;2023-08-01T06:43:05;18.40;99.90
21928;DHT22;11128;51.096;17.190;2023-08-01T06:48:06;18.40;1.00
21928;DHT22;11128;51.096;17.190;2023-08-01T06:53:09;18.40;1.00
21928;DHT22;11128;51.096;17.190;2023-08-01T06:58:10;18.40;1.00
21928;DHT22;11128;51.096;17.190;2023-08-01T07:03:12;18.40;1.00
21928;DHT22;11128;51.096;17.190;2023-08-01T07:08:13;18.40;1.00
21928;DHT22;11128;51.096;17.190;2023-08-01T07:13:15;18.30;1.00
21928;DHT22;11128;51.096;17.190;2023-08-01T07:18:17;18.30;99.90
21928;DHT22;11128;51.096;17.190;2023-08-01T07:23:20;18.30;99.90
21928;DHT22;11128;51.096;17.190;2023-08-01T07:28:21;18.30;1.00
21928;DHT22;11128;51.096;17.190;2023-08-01T07:33:23;18.30;1.00
21928;DHT22;11128;51.096;17.190;2023-08-01T07:38:24;18.40;99.90
21928;DHT22;11128;51.096;17.190;2023-08-01T07:43:26;18.50;99.90
21928;DHT22;11128;51.096;17.190;2023-08-01T07:48:27;18.50;1.00
21928;DHT22;11128;51.096;17.190;2023-08-01T07:53:28;18.60;99.90
21928;DHT22;11128;51.096;17.190;2023-08-01T07:58:30;18.60;1.00
21928;DHT22;11128;51.096;17.190;2023-08-01T08:03:31;18.80;99.90
21928;DHT22;11128;51.096;17.190;2023-08-01T08:08:33;18.90;1.00
21928;DHT22;11128;51.096;17.190;2023-08-01T08:13:35;19.10;99.90
21928;DHT22;11128;51.096;17.190;2023-08-01T08:18:36;19.20;1.00
21928;DHT22;11128;51.096;17.190;2023-08-01T08:23:38;19.20;1.00
21928;DHT22;11128;51.096;17.190;2023-08-01T08:28:39;19.20;1.00
21928;DHT22;11128;51.096;17.190;2023-08-01T08:33:43;19.20;93.70
21928;DHT22;11128;51.096;17.190;2023-08-01T08:38:44;19.30;99.90
21928;DHT22;11128;51.096;17.190;2023-08-01T08:43:47;19.30;1.00
21928;DHT22;11128;51.096;17.190;2023-08-01T08:48:50;19.30;1.00
21928;DHT22;11128;51.096;17.190;2023-08-01T08:53:53;19.20;1.00
21928;DHT22;11128;51.096;17.190;2023-08-01T08:58:55;19.20;1.00
21928;DHT22;11128;51.096;17.190;2023-08-01T09:03:57;19.10;1.00
21928;DHT22;11128;51.096;17.190;2023-08-01T09:09:09;19.10;1.00
21928;DHT22;11128;51.096;17.190;2023-08-01T09:14:11;19.10;1.00
21928;DHT22;11128;51.096;17.190;2023-08-01T09:19:23;19.10;1.00
21928;DHT22;11128;51.096;17.190;2023-08-01T09:24:26;19.20;1.00
21928;DHT22;11128;51.096;17.190;2023-08-01T09:29:27;19.20;1.00
21928;DHT22;11128;51.096;17.190;2023-08-01T09:34:28;19.30;14.40
21928;DHT22;11128;51.096;17.190;2023-08-01T09:39:30;19.30;1.00
21928;DHT22;11128;51.096;17.190;2023-08-01T09:44:34;19.30;1.00
21928;DHT22;11128;51.096;17.190;2023-08-01T09:49:47;19.30;99.90
21928;DHT22;11128;51.096;17.190;2023-08-01T09:54:49;19.30;99.90
21928;DHT22;11128;51.096;17.190;2023-08-01T09:59:51;19.30;99.90
21928;DHT22;11128;51.096;17.190;2023-08-01T10:04:57;19.30;1.00
21928;DHT22;11128;51.096;17.190;2023-08-01T10:09:59;19.30;99.90
21928;DHT22;11128;51.096;17.190;2023-08-01T10:15:01;19.30;1.00
21928;DHT22;11128;51.096;17.190;2023-08-01T10:20:05;19.30;99.90
21928;DHT22;11128;51.096;17.190;2023-08-01T10:25:08;19.40;1.00
21928;DHT22;11128;51.096;17.190;2023-08-01T10:30:10;19.50;1.00
21928;DHT22;11128;51.096;17.190;2023-08-01T10:35:12;19.50;1.00
21928;DHT22;11128;51.096;17.190;2023-08-01T10:40:14;19.60;99.90
21928;DHT22;11128;51.096;17.190;2023-08-01T10:45:21;19.70;99.90
21928;DHT22;11128;51.096;17.190;2023-08-01T10:50:23;19.70;99.90
21928;DHT22;11128;51.096;17.190;2023-08-01T10:55:24;19.70;1.00
21928;DHT22;11128;51.096;17.190;2023-08-01T11:00:25;19.80;1.00
21928;DHT22;11128;51.096;17.190;2023-08-01T11:05:27;19.80;1.00
21928;DHT22;11128;51.096;17.190;2023-08-01T11:10:31;19.90;1.00
21928;DHT22;11128;51.096;17.190;2023-08-01T11:15:37;19.90;99.90
21928;DHT22;11128;51.096;17.190;2023-08-01T11:20:38;19.80;1.00
21928;DHT22;11128;51.096;17.190;2023-08-01T11:25:42;19.70;99.90
21928;DHT22;11128;51.096;17.190;2023-08-01T11:30:50;19.70;8.20
21928;DHT22;11128;51.096;17.190;2023-08-01T11:35:56;19.60;99.90
21928;DHT22;11128;51.096;17.190;2023-08-01T11:41:03;19.50;1.00
21928;DHT22;11128;51.096;17.190;2023-08-01T11:46:04;19.50;99.90
21928;DHT22;11128;51.096;17.190;2023-08-01T11:51:06;19.60;1.00
21928;DHT22;11128;51.096;17.190;2023-08-01T11:56:07;19.70;99.90
21928;DHT22;11128;51.096;17.190;2023-08-01T12:01:13;19.80;99.90
21928;DHT22;11128;51.096;17.190;2023-08-01T12:06:16;19.90;99.90
21928;DHT22;11128;51.096;17.190;2023-08-01T12:11:28;20.00;99.90
21928;DHT22;11128;51.096;17.190;2023-08-01T12:16:31;20.10;98.90
21928;DHT22;11128;51.096;17.190;2023-08-01T12:21:33;20.20;99.90
21928;DHT22;11128;51.096;17.190;2023-08-01T12:26:35;20.30;99.90
21928;DHT22;11128;51.096;17.190;2023-08-01T12:31:38;20.50;21.20
21928;DHT22;11128;51.096;17.190;2023-08-01T12:36:39;20.70;1.00
21928;DHT22;11128;51.096;17.190;2023-08-01T12:41:40;20.90;99.90
21928;DHT22;11128;51.096;17.190;2023-08-01T12:46:42;21.00;99.90
21928;DHT22;11128;51.096;17.190;2023-08-01T12:51:43;21.10;1.00
21928;DHT22;11128;51.096;17.190;2023-08-01T12:56:44;21.20;1.00
21928;DHT22;11128;51.096;17.190;2023-08-01T13:01:46;21.30;1.00
21928;DHT22;11128;51.096;17.190;2023-08-01T13:06:48;21.30;1.00
21928;DHT22;11128;51.096;17.190;2023-08-01T13:11:49;21.40;1.00
21928;DHT22;11128;51.096;17.190;2023-08-01T13:16:51;21.40;1.00
21928;DHT22;11128;51.096;17.190;2023-08-01T13:21:52;21.40;1.00
21928;DHT22;11128;51.096;17.190;2023-08-01T13:26:54;21.50;1.00
21928;DHT22;11128;51.096;17.190;2023-08-01T13:31:55;21.60;99.90
21928;DHT22;11128;51.096;17.190;2023-08-01T13:36:56;21.80;1.00
21928;DHT22;11128;51.096;17.190;2023-08-01T13:41:58;22.00;99.90
21928;DHT22;11128;51.096;17.190;2023-08-01T13:46:59;22.00;99.90
21928;DHT22;11128;51.096;17.190;2023-08-01T13:52:01;22.00;99.90
21928;DHT22;11128;51.096;17.190;2023-08-01T13:57:04;22.10;99.90
21928;DHT22;11128;51.096;17.190;2023-08-01T14:02:05;22.20;99.90
21928;DHT22;11128;51.096;17.190;2023-08-01T14:07:07;22.50;99.90
21928;DHT22;11128;51.096;17.190;2023-08-01T14:12:08;22.70;99.90
21928;DHT22;11128;51.096;17.190;2023-08-01T14:17:09;22.90;92.50
21928;DHT22;11128;51.096;17.190;2023-08-01T14:22:11;22.80;77.00
21928;DHT22;11128;51.096;17.190;2023-08-01T14:27:12;22.70;87.80
21928;DHT22;11128;51.096;17.190;2023-08-01T14:32:13;22.60;99.90
21928;DHT22;11128;51.096;17.190;2023-08-01T14:37:15;22.50;99.90
21928;DHT22;11128;51.096;17.190;2023-08-01T14:42:16;22.40;99.90
21928;DHT22;11128;51.096;17.190;2023-08-01T14:47:17;22.30;99.90
21928;DHT22;11128;51.096;17.190;2023-08-01T14:52:19;22.30;99.90
21928;DHT22;11128;51.096;17.190;2023-08-01T14:57:20;22.10;99.90
21928;DHT22;11128;51.096;17.190;2023-08-01T15:02:22;22.10;99.90
21928;DHT22;11128;51.096;17.190;2023-08-01T15:07:24;22.10;99.90
21928;DHT22;11128;51.096;17.190;2023-08-01T15:12:26;22.10;99.90
21928;DHT22;11128;51.096;17.190;2023-08-01T15:17:27;22.10;99.90
21928;DHT22;11128;51.096;17.190;2023-08-01T15:22:29;22.00;99.90
21928;DHT22;11128;51.096;17.190;2023-08-01T15:27:30;22.00;99.90
21928;DHT22;11128;51.096;17.190;2023-08-01T15:32:31;22.00;99.90
21928;DHT22;11128;51.096;17.190;2023-08-01T15:37:33;22.00;99.90
21928;DHT22;11128;51.096;17.190;2023-08-01T15:42:34;21.90;99.90
21928;DHT22;11128;51.096;17.190;2023-08-01T15:47:35;21.90;99.90
21928;DHT22;11128;51.096;17.190;2023-08-01T15:52:37;21.90;99.90
21928;DHT22;11128;51.096;17.190;2023-08-01T15:57:38;21.90;99.90
21928;DHT22;11128;51.096;17.190;2023-08-01T16:02:40;21.90;99.90
21928;DHT22;11128;51.096;17.190;2023-08-01T16:07:41;21.80;99.90
21928;DHT22;11128;51.096;17.190;2023-08-01T16:12:43;21.80;99.90
21928;DHT22;11128;51.096;17.190;2023-08-01T16:17:45;21.80;99.90
21928;DHT22;11128;51.096;17.190;2023-08-01T16:22:46;21.80;99.90
21928;DHT22;11128;51.096;17.190;2023-08-01T16:27:49;21.80;99.90
21928;DHT22;11128;51.096;17.190;2023-08-01T16:32:50;21.70;99.90
21928;DHT22;11128;51.096;17.190;2023-08-01T16:37:52;21.70;99.90
21928;DHT22;11128;51.096;17.190;2023-08-01T16:42:53;21.70;99.90
21928;DHT22;11128;51.096;17.190;2023-08-01T16:47:55;21.70;99.90
21928;DHT22;11128;51.096;17.190;2023-08-01T16:52:56;21.60;99.90
21928;DHT22;11128;51.096;17.190;2023-08-01T16:57:57;21.60;99.90
21928;DHT22;11128;51.096;17.190;2023-08-01T17:02:59;21.60;99.90
21928;DHT22;11128;51.096;17.190;2023-08-01T17:08:01;21.50;99.90
21928;DHT22;11128;51.096;17.190;2023-08-01T17:13:03;21.30;99.90
21928;DHT22;11128;51.096;17.190;2023-08-01T17:18:05;21.20;99.90
21928;DHT22;11128;51.096;17.190;2023-08-01T17:23:06;21.00;99.90
21928;DHT22;11128;51.096;17.190;2023-08-01T17:28:07;20.90;99.90
21928;DHT22;11128;51.096;17.190;2023-08-01T17:33:09;20.80;99.90
21928;DHT22;11128;51.096;17.190;2023-08-01T17:38:11;20.70;99.90
21928;DHT22;11128;51.096;17.190;2023-08-01T17:43:13;20.60;1.00
21928;DHT22;11128;51.096;17.190;2023-08-01T17:48:15;20.50;1.00
21928;DHT22;11128;51.096;17.190;2023-08-01T17:53:16;20.40;1.00
21928;DHT22;11128;51.096;17.190;2023-08-01T17:58:17;20.30;1.00
21928;DHT22;11128;51.096;17.190;2023-08-01T18:03:19;20.20;1.00
21928;DHT22;11128;51.096;17.190;2023-08-01T18:08:20;19.90;99.90
21928;DHT22;11128;51.096;17.190;2023-08-01T18:13:23;19.80;1.00
21928;DHT22;11128;51.096;17.190;2023-08-01T18:18:24;19.70;1.00
21928;DHT22;11128;51.096;17.190;2023-08-01T18:23:27;19.70;99.90
21928;DHT22;11128;51.096;17.190;2023-08-01T18:28:29;19.60;1.00
21928;DHT22;11128;51.096;17.190;2023-08-01T18:33:31;19.60;1.00
21928;DHT22;11128;51.096;17.190;2023-08-01T18:38:32;19.50;1.00
21928;DHT22;11128;51.096;17.190;2023-08-01T18:43:34;19.60;99.90
21928;DHT22;11128;51.096;17.190;2023-08-01T18:48:35;19.60;99.90
21928;DHT22;11128;51.096;17.190;2023-08-01T18:53:37;19.60;99.90
21928;DHT22;11128;51.096;17.190;2023-08-01T18:58:40;19.50;99.90
21928;DHT22;11128;51.096;17.190;2023-08-01T19:03:42;19.50;99.90
21928;DHT22;11128;51.096;17.190;2023-08-01T19:08:44;19.60;99.90
21928;DHT22;11128;51.096;17.190;2023-08-01T19:13:46;19.60;99.90
21928;DHT22;11128;51.096;17.190;2023-08-01T19:18:51;19.50;99.90
21928;DHT22;11128;51.096;17.190;2023-08-01T19:23:53;19.50;99.90
21928;DHT22;11128;51.096;17.190;2023-08-01T19:28:55;19.40;99.90
21928;DHT22;11128;51.096;17.190;2023-08-01T19:33:56;19.40;99.90
21928;DHT22;11128;51.096;17.190;2023-08-01T19:39:00;19.30;99.90
21928;DHT22;11128;51.096;17.190;2023-08-01T19:44:02;19.30;99.90
21928;DHT22;11128;51.096;17.190;2023-08-01T19:49:03;19.10;99.90
21928;DHT22;11128;51.096;17.190;2023-08-01T19:54:05;19.10;1.00
21928;DHT22;11128;51.096;17.190;2023-08-01T19:59:06;19.10;1.00
21928;DHT22;11128;51.096;17.190;2023-08-01T20:04:08;19.10;1.00
21928;DHT22;11128;51.096;17.190;2023-08-01T20:09:10;19.00;1.00
21928;DHT22;11128;51.096;17.190;2023-08-01T20:14:12;19.10;99.90
21928;DHT22;11128;51.096;17.190;2023-08-01T20:19:14;19.10;99.90
21928;DHT22;11128;51.096;17.190;2023-08-01T20:24:15;19.10;99.90
21928;DHT22;11128;51.096;17.190;2023-08-01T20:29:17;19.10;99.90
21928;DHT22;11128;51.096;17.190;2023-08-01T20:34:19;19.10;99.90
21928;DHT22;11128;51.096;17.190;2023-08-01T20:39:20;19.10;99.90
21928;DHT22;11128;51.096;17.190;2023-08-01T20:44:23;19.00;99.90
21928;DHT22;11128;51.096;17.190;2023-08-01T20:49:44;18.90;99.90
21928;DHT22;11128;51.096;17.190;2023-08-01T20:54:46;18.90;99.90
21928;DHT22;11128;51.096;17.190;2023-08-01T20:59:47;19.00;99.90
21928;DHT22;11128;51.096;17.190;2023-08-01T21:04:48;18.90;99.90
21928;DHT22;11128;51.096;17.190;2023-08-01T21:09:50;18.90;99.90
21928;DHT22;11128;51.096;17.190;2023-08-01T21:14:52;18.90;68.90
21928;DHT22;11128;51.096;17.190;2023-08-01T21:19:56;18.90;28.80
21928;DHT22;11128;51.096;17.190;2023-08-01T21:24:57;18.90;20.10
21928;DHT22;11128;51.096;17.190;2023-08-01T21:30:00;18.90;24.40
21928;DHT22;11128;51.096;17.190;2023-08-01T21:35:02;18.90;4.00
21928;DHT22;11128;51.096;17.190;2023-08-01T21:40:04;18.90;1.00
21928;DHT22;11128;51.096;17.190;2023-08-01T21:45:06;18.90;1.00
21928;DHT22;11128;51.096;17.190;2023-08-01T21:50:08;18.80;48.20
21928;DHT22;11128;51.096;17.190;2023-08-01T21:55:10;18.80;93.20
21928;DHT22;11128;51.096;17.190;2023-08-01T22:00:13;18.80;28.80
21928;DHT22;11128;51.096;17.190;2023-08-01T22:05:15;18.70;40.20
21928;DHT22;11128;51.096;17.190;2023-08-01T22:10:16;18.70;37.30
21928;DHT22;11128;51.096;17.190;2023-08-01T22:15:18;18.60;85.80
21928;DHT22;11128;51.096;17.190;2023-08-01T22:20:20;18.60;1.00
21928;DHT22;11128;51.096;17.190;2023-08-01T22:25:22;18.60;1.00
21928;DHT22;11128;51.096;17.190;2023-08-01T22:30:23;18.60;7.50
21928;DHT22;11128;51.096;17.190;2023-08-01T22:35:27;18.50;1.00
21928;DHT22;11128;51.096;17.190;2023-08-01T22:40:28;18.50;1.00
21928;DHT22;11128;51.096;17.190;2023-08-01T22:45:30;18.50;1.00
21928;DHT22;11128;51.096;17.190;2023-08-01T22:50:32;18.50;1.00
21928;DHT22;11128;51.096;17.190;2023-08-01T22:55:35;18.50;1.00
21928;DHT22;11128;51.096;17.190;2023-08-01T23:00:37;18.40;1.00
21928;DHT22;11128;51.096;17.190;2023-08-01T23:05:38;18.30;1.00
21928;DHT22;11128;51.096;17.190;2023-08-01T23:10:39;18.10;1.00
21928;DHT22;11128;51.096;17.190;2023-08-01T23:15:45;18.00;1.00
21928;DHT22;11128;51.096;17.190;2023-08-01T23:20:46;18.00;1.00
21928;DHT22;11128;51.096;17.190;2023-08-01T23:25:48;17.90;50.70
21928;DHT22;11128;51.096;17.190;2023-08-01T23:30:51;17.90;99.90
21928;DHT22;11128;51.096;17.190;2023-08-01T23:35:54;17.80;99.90
21928;DHT22;11128;51.096;17.190;2023-08-01T23:40:55;17.90;99.90
21928;DHT22;11128;51.096;17.190;2023-08-01T23:45:57;17.80;99.90
21928;DHT22;11128;51.096;17.190;2023-08-01T23:50:59;17.80;99.90
21928;DHT22;11128;51.096;17.190;2023-08-01T23:56:01;17.80;99.90
